sensor_id;sensor_type;location;lat;lon;timestamp;P1;durP1;ratioP1;P2;durP2;ratioP2
12896;SDS011;6516;35.028;32.372;2023-01-31T00:01:46;12.38;;;3.47;;
12896;SDS011;6516;35.028;32.372;2023-01-31T00:04:14;10.77;;;3.78;;
12896;SDS011;6516;35.028;32.372;2023-01-31T00:06:42;12.30;;;3.73;;
12896;SDS011;6516;35.028;32.372;2023-01-31T00:09:15;10.35;;;3.72;;
12896;SDS011;6516;35.028;32.372;2023-01-31T00:11:45;11.40;;;3.10;;
12896;SDS011;6516;35.028;32.372;2023-01-31T00:14:13;15.10;;;3.33;;
12896;SDS011;6516;35.028;32.372;2023-01-31T00:16:46;13.45;;;3.50;;
12896;SDS011;6516;35.028;32.372;2023-01-31T00:19:14;10.63;;;3.40;;
12896;SDS011;6516;35.028;32.372;2023-01-31T00:21:42;12.15;;;3.55;;
12896;SDS011;6516;35.028;32.372;2023-01-31T00:24:11;11.43;;;3.35;;
12896;SDS011;6516;35.028;32.372;2023-01-31T00:26:39;14.27;;;3.20;;
12896;SDS011;6516;35.028;32.372;2023-01-31T00:29:06;13.90;;;3.25;;
12896;SDS011;6516;35.028;32.372;2023-01-31T00:31:36;11.37;;;3.53;;
12896;SDS011;6516;35.028;32.372;2023-01-31T00:34:03;11.23;;;3.60;;
12896;SDS011;6516;35.028;32.372;2023-01-31T00:36:32;11.48;;;3.50;;
12896;SDS011;6516;35.028;32.372;2023-01-31T00:39:03;9.45;;;2.95;;
12896;SDS011;6516;35.028;32.372;2023-01-31T00:41:33;12.48;;;3.30;;
12896;SDS011;6516;35.028;32.372;2023-01-31T00:44:03;12.50;;;3.07;;
12896;SDS011;6516;35.028;32.372;2023-01-31T00:46:32;14.35;;;3.50;;
12896;SDS011;6516;35.028;32.372;2023-01-31T00:49:02;8.52;;;2.90;;
12896;SDS011;6516;35.028;32.372;2023-01-31T00:51:30;8.80;;;2.72;;
12896;SDS011;6516;35.028;32.372;2023-01-31T00:53:57;11.10;;;3.22;;
12896;SDS011;6516;35.028;32.372;2023-01-31T00:56:25;15.20;;;3.50;;
12896;SDS011;6516;35.028;32.372;2023-01-31T00:58:53;10.25;;;2.88;;
12896;SDS011;6516;35.028;32.372;2023-01-31T01:01:21;10.10;;;3.05;;
12896;SDS011;6516;35.028;32.372;2023-01-31T01:03:51;10.35;;;2.80;;
12896;SDS011;6516;35.028;32.372;2023-01-31T01:06:22;10.00;;;3.22;;
12896;SDS011;6516;35.028;32.372;2023-01-31T01:08:51;7.87;;;2.60;;
12896;SDS011;6516;35.028;32.372;2023-01-31T01:11:20;11.32;;;2.95;;
12896;SDS011;6516;35.028;32.372;2023-01-31T01:13:51;8.68;;;3.10;;
12896;SDS011;6516;35.028;32.372;2023-01-31T01:16:20;11.85;;;2.70;;
12896;SDS011;6516;35.028;32.372;2023-01-31T01:18:51;10.48;;;3.15;;
12896;SDS011;6516;35.028;32.372;2023-01-31T01:21:22;10.03;;;3.10;;
12896;SDS011;6516;35.028;32.372;2023-01-31T01:23:52;8.82;;;3.15;;
12896;SDS011;6516;35.028;32.372;2023-01-31T01:26:23;13.27;;;4.05;;
12896;SDS011;6516;35.028;32.372;2023-01-31T01:28:54;8.07;;;2.53;;
12896;SDS011;6516;35.028;32.372;2023-01-31T01:31:23;10.88;;;2.70;;
12896;SDS011;6516;35.028;32.372;2023-01-31T01:33:55;8.73;;;2.60;;
12896;SDS011;6516;35.028;32.372;2023-01-31T01:36:26;8.82;;;2.50;;
12896;SDS011;6516;35.028;32.372;2023-01-31T01:38:54;7.25;;;2.28;;
12896;SDS011;6516;35.028;32.372;2023-01-31T01:41:22;7.32;;;2.28;;
12896;SDS011;6516;35.028;32.372;2023-01-31T01:43:52;12.10;;;2.55;;
12896;SDS011;6516;35.028;32.372;2023-01-31T01:46:22;9.63;;;2.30;;
12896;SDS011;6516;35.028;32.372;2023-01-31T01:48:54;7.75;;;2.05;;
12896;SDS011;6516;35.028;32.372;2023-01-31T01:51:28;9.23;;;2.60;;
12896;SDS011;6516;35.028;32.372;2023-01-31T01:53:58;7.63;;;2.40;;
12896;SDS011;6516;35.028;32.372;2023-01-31T01:56:32;8.07;;;2.30;;
12896;SDS011;6516;35.028;32.372;2023-01-31T01:59:04;6.83;;;2.10;;
12896;SDS011;6516;35.028;32.372;2023-01-31T02:01:36;7.80;;;2.55;;
12896;SDS011;6516;35.028;32.372;2023-01-31T02:04:05;8.43;;;2.28;;
12896;SDS011;6516;35.028;32.372;2023-01-31T02:06:37;8.30;;;2.85;;
12896;SDS011;6516;35.028;32.372;2023-01-31T02:09:06;9.00;;;3.20;;
12896;SDS011;6516;35.028;32.372;2023-01-31T02:11:42;7.77;;;3.03;;
12896;SDS011;6516;35.028;32.372;2023-01-31T02:14:09;10.98;;;3.22;;
12896;SDS011;6516;35.028;32.372;2023-01-31T02:16:38;10.27;;;3.50;;
12896;SDS011;6516;35.028;32.372;2023-01-31T02:19:07;6.78;;;3.00;;
12896;SDS011;6516;35.028;32.372;2023-01-31T02:22:05;7.18;;;3.15;;
12896;SDS011;6516;35.028;32.372;2023-01-31T02:28:03;12.18;;;3.45;;
12896;SDS011;6516;35.028;32.372;2023-01-31T02:34:38;10.82;;;3.50;;
12896;SDS011;6516;35.028;32.372;2023-01-31T02:37:15;8.60;;;2.67;;
12896;SDS011;6516;35.028;32.372;2023-01-31T02:39:53;8.87;;;2.50;;
12896;SDS011;6516;35.028;32.372;2023-01-31T02:42:32;8.43;;;2.63;;
12896;SDS011;6516;35.028;32.372;2023-01-31T02:45:12;10.70;;;2.50;;
12896;SDS011;6516;35.028;32.372;2023-01-31T02:47:53;8.85;;;2.60;;
12896;SDS011;6516;35.028;32.372;2023-01-31T02:50:35;7.78;;;2.70;;
12896;SDS011;6516;35.028;32.372;2023-01-31T02:53:12;8.67;;;2.60;;
12896;SDS011;6516;35.028;32.372;2023-01-31T02:55:47;6.55;;;2.78;;
12896;SDS011;6516;35.028;32.372;2023-01-31T02:58:43;10.07;;;2.60;;
12896;SDS011;6516;35.028;32.372;2023-01-31T03:01:17;8.30;;;2.40;;
12896;SDS011;6516;35.028;32.372;2023-01-31T03:03:49;10.15;;;2.80;;
12896;SDS011;6516;35.028;32.372;2023-01-31T03:09:32;8.93;;;2.30;;
12896;SDS011;6516;35.028;32.372;2023-01-31T03:12:13;9.13;;;2.67;;
12896;SDS011;6516;35.028;32.372;2023-01-31T03:15:18;11.25;;;2.47;;
12896;SDS011;6516;35.028;32.372;2023-01-31T03:18:14;8.77;;;2.55;;
12896;SDS011;6516;35.028;32.372;2023-01-31T03:20:49;12.07;;;2.77;;
12896;SDS011;6516;35.028;32.372;2023-01-31T03:23:26;8.90;;;2.70;;
12896;SDS011;6516;35.028;32.372;2023-01-31T03:25:58;9.15;;;2.20;;
12896;SDS011;6516;35.028;32.372;2023-01-31T03:28:30;7.55;;;2.65;;
12896;SDS011;6516;35.028;32.372;2023-01-31T03:31:03;7.40;;;3.17;;
12896;SDS011;6516;35.028;32.372;2023-01-31T03:33:38;11.70;;;2.80;;
12896;SDS011;6516;35.028;32.372;2023-01-31T03:36:14;8.77;;;3.20;;
12896;SDS011;6516;35.028;32.372;2023-01-31T03:38:54;8.98;;;3.25;;
12896;SDS011;6516;35.028;32.372;2023-01-31T03:41:38;10.40;;;3.45;;
12896;SDS011;6516;35.028;32.372;2023-01-31T03:44:19;12.55;;;4.47;;
12896;SDS011;6516;35.028;32.372;2023-01-31T03:46:54;10.63;;;3.80;;
12896;SDS011;6516;35.028;32.372;2023-01-31T03:49:27;11.93;;;3.75;;
12896;SDS011;6516;35.028;32.372;2023-01-31T03:51:57;13.20;;;4.55;;
12896;SDS011;6516;35.028;32.372;2023-01-31T03:54:35;8.30;;;3.67;;
12896;SDS011;6516;35.028;32.372;2023-01-31T03:57:11;11.77;;;3.67;;
12896;SDS011;6516;35.028;32.372;2023-01-31T03:59:46;9.20;;;3.20;;
12896;SDS011;6516;35.028;32.372;2023-01-31T04:02:19;8.38;;;3.65;;
12896;SDS011;6516;35.028;32.372;2023-01-31T04:04:52;10.85;;;3.33;;
12896;SDS011;6516;35.028;32.372;2023-01-31T04:07:24;8.30;;;3.00;;
12896;SDS011;6516;35.028;32.372;2023-01-31T04:09:53;11.65;;;3.53;;
12896;SDS011;6516;35.028;32.372;2023-01-31T04:12:21;8.27;;;3.63;;
12896;SDS011;6516;35.028;32.372;2023-01-31T04:14:49;11.35;;;3.25;;
12896;SDS011;6516;35.028;32.372;2023-01-31T04:17:17;10.80;;;3.42;;
12896;SDS011;6516;35.028;32.372;2023-01-31T04:19:44;8.60;;;3.45;;
12896;SDS011;6516;35.028;32.372;2023-01-31T04:22:12;9.73;;;3.53;;
12896;SDS011;6516;35.028;32.372;2023-01-31T04:24:40;10.53;;;3.03;;
12896;SDS011;6516;35.028;32.372;2023-01-31T04:27:09;11.18;;;3.17;;
12896;SDS011;6516;35.028;32.372;2023-01-31T04:29:37;10.50;;;3.00;;
12896;SDS011;6516;35.028;32.372;2023-01-31T04:32:05;9.93;;;2.92;;
12896;SDS011;6516;35.028;32.372;2023-01-31T04:34:33;11.27;;;2.88;;
12896;SDS011;6516;35.028;32.372;2023-01-31T04:37:00;10.33;;;2.67;;
12896;SDS011;6516;35.028;32.372;2023-01-31T04:39:28;8.65;;;2.65;;
12896;SDS011;6516;35.028;32.372;2023-01-31T04:41:56;12.57;;;3.20;;
12896;SDS011;6516;35.028;32.372;2023-01-31T04:44:25;10.60;;;2.70;;
12896;SDS011;6516;35.028;32.372;2023-01-31T04:46:53;6.60;;;2.80;;
12896;SDS011;6516;35.028;32.372;2023-01-31T04:49:21;11.73;;;2.90;;
12896;SDS011;6516;35.028;32.372;2023-01-31T04:51:48;8.48;;;2.40;;
12896;SDS011;6516;35.028;32.372;2023-01-31T04:54:16;8.40;;;2.58;;
12896;SDS011;6516;35.028;32.372;2023-01-31T04:56:44;10.63;;;2.50;;
12896;SDS011;6516;35.028;32.372;2023-01-31T04:59:11;10.05;;;2.53;;
12896;SDS011;6516;35.028;32.372;2023-01-31T05:01:41;8.70;;;2.40;;
12896;SDS011;6516;35.028;32.372;2023-01-31T05:04:08;9.95;;;3.15;;
12896;SDS011;6516;35.028;32.372;2023-01-31T05:06:37;12.07;;;3.42;;
12896;SDS011;6516;35.028;32.372;2023-01-31T05:09:04;10.18;;;3.10;;
12896;SDS011;6516;35.028;32.372;2023-01-31T05:11:32;12.10;;;3.38;;
12896;SDS011;6516;35.028;32.372;2023-01-31T05:14:00;8.90;;;2.60;;
12896;SDS011;6516;35.028;32.372;2023-01-31T05:16:28;11.65;;;3.50;;
12896;SDS011;6516;35.028;32.372;2023-01-31T05:18:57;9.15;;;2.60;;
12896;SDS011;6516;35.028;32.372;2023-01-31T05:21:25;11.27;;;4.00;;
12896;SDS011;6516;35.028;32.372;2023-01-31T05:23:53;10.75;;;3.15;;
12896;SDS011;6516;35.028;32.372;2023-01-31T05:26:20;10.13;;;3.63;;
12896;SDS011;6516;35.028;32.372;2023-01-31T05:28:51;11.40;;;3.08;;
12896;SDS011;6516;35.028;32.372;2023-01-31T05:31:19;12.35;;;3.05;;
12896;SDS011;6516;35.028;32.372;2023-01-31T05:33:46;9.57;;;2.65;;
12896;SDS011;6516;35.028;32.372;2023-01-31T05:36:16;11.70;;;2.72;;
12896;SDS011;6516;35.028;32.372;2023-01-31T05:38:43;9.03;;;2.97;;
12896;SDS011;6516;35.028;32.372;2023-01-31T05:41:12;10.25;;;2.50;;
12896;SDS011;6516;35.028;32.372;2023-01-31T05:43:40;11.55;;;2.78;;
12896;SDS011;6516;35.028;32.372;2023-01-31T05:46:07;9.10;;;2.60;;
12896;SDS011;6516;35.028;32.372;2023-01-31T05:48:35;10.07;;;3.00;;
12896;SDS011;6516;35.028;32.372;2023-01-31T05:51:03;10.17;;;3.00;;
12896;SDS011;6516;35.028;32.372;2023-01-31T05:53:33;12.70;;;3.47;;
12896;SDS011;6516;35.028;32.372;2023-01-31T05:56:00;10.20;;;3.15;;
12896;SDS011;6516;35.028;32.372;2023-01-31T05:58:28;9.75;;;3.20;;
12896;SDS011;6516;35.028;32.372;2023-01-31T06:00:56;12.52;;;3.55;;
12896;SDS011;6516;35.028;32.372;2023-01-31T06:03:23;9.63;;;2.93;;
12896;SDS011;6516;35.028;32.372;2023-01-31T06:05:51;12.43;;;3.10;;
12896;SDS011;6516;35.028;32.372;2023-01-31T06:08:19;9.52;;;2.97;;
12896;SDS011;6516;35.028;32.372;2023-01-31T06:10:49;10.18;;;3.22;;
12896;SDS011;6516;35.028;32.372;2023-01-31T06:13:16;12.00;;;3.70;;
12896;SDS011;6516;35.028;32.372;2023-01-31T06:15:44;8.87;;;2.83;;
12896;SDS011;6516;35.028;32.372;2023-01-31T06:18:12;12.45;;;3.30;;
12896;SDS011;6516;35.028;32.372;2023-01-31T06:20:40;9.85;;;3.67;;
12896;SDS011;6516;35.028;32.372;2023-01-31T06:23:07;12.32;;;3.60;;
12896;SDS011;6516;35.028;32.372;2023-01-31T06:25:35;11.63;;;3.95;;
12896;SDS011;6516;35.028;32.372;2023-01-31T06:28:05;11.73;;;3.80;;
12896;SDS011;6516;35.028;32.372;2023-01-31T06:30:32;10.75;;;4.07;;
12896;SDS011;6516;35.028;32.372;2023-01-31T06:33:00;9.18;;;3.90;;
12896;SDS011;6516;35.028;32.372;2023-01-31T06:35:28;10.80;;;4.38;;
12896;SDS011;6516;35.028;32.372;2023-01-31T06:37:58;10.63;;;4.65;;
12896;SDS011;6516;35.028;32.372;2023-01-31T06:40:25;14.10;;;4.57;;
12896;SDS011;6516;35.028;32.372;2023-01-31T06:42:53;11.38;;;4.93;;
12896;SDS011;6516;35.028;32.372;2023-01-31T06:45:22;10.90;;;4.47;;
12896;SDS011;6516;35.028;32.372;2023-01-31T06:47:50;14.15;;;4.78;;
12896;SDS011;6516;35.028;32.372;2023-01-31T06:50:18;13.18;;;5.25;;
12896;SDS011;6516;35.028;32.372;2023-01-31T06:52:46;12.50;;;4.80;;
12896;SDS011;6516;35.028;32.372;2023-01-31T06:55:16;11.32;;;5.30;;
12896;SDS011;6516;35.028;32.372;2023-01-31T06:57:45;12.88;;;4.90;;
12896;SDS011;6516;35.028;32.372;2023-01-31T07:00:13;11.75;;;4.95;;
12896;SDS011;6516;35.028;32.372;2023-01-31T07:02:45;12.48;;;4.93;;
12896;SDS011;6516;35.028;32.372;2023-01-31T07:05:14;11.73;;;4.90;;
12896;SDS011;6516;35.028;32.372;2023-01-31T07:07:42;10.95;;;4.97;;
12896;SDS011;6516;35.028;32.372;2023-01-31T07:10:10;15.13;;;5.60;;
12896;SDS011;6516;35.028;32.372;2023-01-31T07:12:39;13.27;;;5.20;;
12896;SDS011;6516;35.028;32.372;2023-01-31T07:15:07;12.82;;;5.30;;
12896;SDS011;6516;35.028;32.372;2023-01-31T07:17:36;13.93;;;5.37;;
12896;SDS011;6516;35.028;32.372;2023-01-31T07:20:06;12.57;;;5.45;;
12896;SDS011;6516;35.028;32.372;2023-01-31T07:22:36;11.73;;;5.47;;
12896;SDS011;6516;35.028;32.372;2023-01-31T07:25:04;11.77;;;5.45;;
12896;SDS011;6516;35.028;32.372;2023-01-31T07:27:32;12.02;;;4.88;;
12896;SDS011;6516;35.028;32.372;2023-01-31T07:30:00;12.80;;;4.63;;
12896;SDS011;6516;35.028;32.372;2023-01-31T07:32:28;13.15;;;4.97;;
12896;SDS011;6516;35.028;32.372;2023-01-31T07:34:56;11.65;;;5.10;;
12896;SDS011;6516;35.028;32.372;2023-01-31T07:37:25;11.38;;;4.70;;
12896;SDS011;6516;35.028;32.372;2023-01-31T07:39:55;14.18;;;4.40;;
12896;SDS011;6516;35.028;32.372;2023-01-31T07:42:22;12.33;;;4.73;;
12896;SDS011;6516;35.028;32.372;2023-01-31T07:44:50;9.25;;;3.95;;
12896;SDS011;6516;35.028;32.372;2023-01-31T07:47:18;12.32;;;4.07;;
12896;SDS011;6516;35.028;32.372;2023-01-31T07:49:46;12.20;;;3.88;;
12896;SDS011;6516;35.028;32.372;2023-01-31T07:52:14;14.55;;;4.05;;
12896;SDS011;6516;35.028;32.372;2023-01-31T07:54:44;8.67;;;3.67;;
12896;SDS011;6516;35.028;32.372;2023-01-31T07:57:11;8.32;;;3.47;;
12896;SDS011;6516;35.028;32.372;2023-01-31T07:59:41;8.88;;;3.65;;
12896;SDS011;6516;35.028;32.372;2023-01-31T08:02:10;9.05;;;3.97;;
12896;SDS011;6516;35.028;32.372;2023-01-31T08:04:56;8.20;;;4.00;;
12896;SDS011;6516;35.028;32.372;2023-01-31T08:07:24;9.90;;;4.07;;
12896;SDS011;6516;35.028;32.372;2023-01-31T08:09:53;9.82;;;3.90;;
12896;SDS011;6516;35.028;32.372;2023-01-31T08:12:21;9.55;;;4.40;;
12896;SDS011;6516;35.028;32.372;2023-01-31T08:14:49;9.07;;;3.80;;
12896;SDS011;6516;35.028;32.372;2023-01-31T08:17:17;9.20;;;3.88;;
12896;SDS011;6516;35.028;32.372;2023-01-31T08:19:44;11.87;;;3.90;;
12896;SDS011;6516;35.028;32.372;2023-01-31T08:22:12;10.45;;;3.78;;
12896;SDS011;6516;35.028;32.372;2023-01-31T08:24:40;11.10;;;4.43;;
12896;SDS011;6516;35.028;32.372;2023-01-31T08:27:09;11.32;;;4.10;;
12896;SDS011;6516;35.028;32.372;2023-01-31T08:29:37;11.48;;;4.10;;
12896;SDS011;6516;35.028;32.372;2023-01-31T08:32:05;11.30;;;4.50;;
12896;SDS011;6516;35.028;32.372;2023-01-31T08:34:33;8.80;;;3.72;;
12896;SDS011;6516;35.028;32.372;2023-01-31T08:37:00;10.18;;;4.55;;
12896;SDS011;6516;35.028;32.372;2023-01-31T08:39:28;13.10;;;5.22;;
12896;SDS011;6516;35.028;32.372;2023-01-31T08:41:56;12.93;;;5.88;;
12896;SDS011;6516;35.028;32.372;2023-01-31T08:44:25;14.17;;;6.17;;
12896;SDS011;6516;35.028;32.372;2023-01-31T08:46:53;17.55;;;6.43;;
12896;SDS011;6516;35.028;32.372;2023-01-31T08:49:21;14.68;;;5.88;;
12896;SDS011;6516;35.028;32.372;2023-01-31T08:51:48;16.70;;;6.05;;
12896;SDS011;6516;35.028;32.372;2023-01-31T08:54:16;14.98;;;6.55;;
12896;SDS011;6516;35.028;32.372;2023-01-31T08:56:44;13.50;;;6.10;;
12896;SDS011;6516;35.028;32.372;2023-01-31T08:59:11;12.50;;;5.55;;
12896;SDS011;6516;35.028;32.372;2023-01-31T09:01:41;14.75;;;6.10;;
12896;SDS011;6516;35.028;32.372;2023-01-31T09:04:10;11.57;;;5.30;;
12896;SDS011;6516;35.028;32.372;2023-01-31T09:06:38;11.85;;;5.45;;
12896;SDS011;6516;35.028;32.372;2023-01-31T09:09:06;14.97;;;6.20;;
12896;SDS011;6516;35.028;32.372;2023-01-31T09:11:35;13.55;;;5.78;;
12896;SDS011;6516;35.028;32.372;2023-01-31T09:14:03;13.52;;;5.70;;
12896;SDS011;6516;35.028;32.372;2023-01-31T09:16:31;13.23;;;5.22;;
12896;SDS011;6516;35.028;32.372;2023-01-31T09:19:01;13.70;;;5.30;;
12896;SDS011;6516;35.028;32.372;2023-01-31T09:21:28;14.97;;;5.63;;
12896;SDS011;6516;35.028;32.372;2023-01-31T09:23:57;14.98;;;5.60;;
12896;SDS011;6516;35.028;32.372;2023-01-31T09:26:28;12.80;;;5.47;;
12896;SDS011;6516;35.028;32.372;2023-01-31T09:28:56;16.13;;;5.63;;
12896;SDS011;6516;35.028;32.372;2023-01-31T09:31:25;14.52;;;5.57;;
12896;SDS011;6516;35.028;32.372;2023-01-31T09:33:54;14.80;;;5.80;;
12896;SDS011;6516;35.028;32.372;2023-01-31T09:36:23;17.45;;;6.03;;
12896;SDS011;6516;35.028;32.372;2023-01-31T09:38:55;13.40;;;6.13;;
12896;SDS011;6516;35.028;32.372;2023-01-31T09:41:25;14.35;;;5.68;;
12896;SDS011;6516;35.028;32.372;2023-01-31T09:43:58;14.10;;;5.63;;
12896;SDS011;6516;35.028;32.372;2023-01-31T09:46:32;15.67;;;5.93;;
12896;SDS011;6516;35.028;32.372;2023-01-31T09:49:05;15.32;;;6.13;;
12896;SDS011;6516;35.028;32.372;2023-01-31T09:51:38;13.35;;;5.53;;
12896;SDS011;6516;35.028;32.372;2023-01-31T09:54:09;13.43;;;5.80;;
12896;SDS011;6516;35.028;32.372;2023-01-31T09:56:49;14.48;;;4.93;;
12896;SDS011;6516;35.028;32.372;2023-01-31T09:59:32;12.23;;;5.20;;
12896;SDS011;6516;35.028;32.372;2023-01-31T10:02:28;14.80;;;5.68;;
12896;SDS011;6516;35.028;32.372;2023-01-31T10:05:13;12.15;;;5.18;;
12896;SDS011;6516;35.028;32.372;2023-01-31T10:07:53;11.32;;;4.70;;
12896;SDS011;6516;35.028;32.372;2023-01-31T10:10:34;11.98;;;5.40;;
12896;SDS011;6516;35.028;32.372;2023-01-31T10:13:05;11.83;;;5.03;;
12896;SDS011;6516;35.028;32.372;2023-01-31T10:15:44;14.90;;;5.22;;
12896;SDS011;6516;35.028;32.372;2023-01-31T10:18:17;11.23;;;4.97;;
12896;SDS011;6516;35.028;32.372;2023-01-31T10:20:53;11.52;;;5.03;;
12896;SDS011;6516;35.028;32.372;2023-01-31T10:23:26;11.40;;;5.15;;
12896;SDS011;6516;35.028;32.372;2023-01-31T10:25:59;10.27;;;4.63;;
12896;SDS011;6516;35.028;32.372;2023-01-31T10:28:30;11.65;;;4.95;;
12896;SDS011;6516;35.028;32.372;2023-01-31T10:31:05;12.35;;;5.05;;
12896;SDS011;6516;35.028;32.372;2023-01-31T10:33:43;9.73;;;5.07;;
12896;SDS011;6516;35.028;32.372;2023-01-31T10:36:19;10.65;;;4.70;;
12896;SDS011;6516;35.028;32.372;2023-01-31T10:38:59;14.30;;;5.10;;
12896;SDS011;6516;35.028;32.372;2023-01-31T10:41:37;13.18;;;5.45;;
12896;SDS011;6516;35.028;32.372;2023-01-31T10:44:14;12.80;;;5.35;;
12896;SDS011;6516;35.028;32.372;2023-01-31T10:46:50;14.98;;;4.97;;
12896;SDS011;6516;35.028;32.372;2023-01-31T10:49:25;10.18;;;4.28;;
12896;SDS011;6516;35.028;32.372;2023-01-31T10:52:01;19.13;;;4.67;;
12896;SDS011;6516;35.028;32.372;2023-01-31T10:54:51;12.60;;;4.88;;
12896;SDS011;6516;35.028;32.372;2023-01-31T10:57:30;12.95;;;4.55;;
12896;SDS011;6516;35.028;32.372;2023-01-31T10:59:59;11.65;;;5.30;;
12896;SDS011;6516;35.028;32.372;2023-01-31T11:02:27;11.90;;;4.93;;
12896;SDS011;6516;35.028;32.372;2023-01-31T11:04:57;10.43;;;4.57;;
12896;SDS011;6516;35.028;32.372;2023-01-31T11:07:27;10.68;;;4.57;;
12896;SDS011;6516;35.028;32.372;2023-01-31T11:09:58;12.55;;;4.93;;
12896;SDS011;6516;35.028;32.372;2023-01-31T11:12:38;12.25;;;5.00;;
12896;SDS011;6516;35.028;32.372;2023-01-31T11:15:13;13.07;;;4.47;;
12896;SDS011;6516;35.028;32.372;2023-01-31T11:17:43;11.67;;;5.00;;
12896;SDS011;6516;35.028;32.372;2023-01-31T11:20:20;17.25;;;5.00;;
12896;SDS011;6516;35.028;32.372;2023-01-31T11:22:51;15.80;;;4.82;;
12896;SDS011;6516;35.028;32.372;2023-01-31T11:25:21;14.43;;;4.65;;
12896;SDS011;6516;35.028;32.372;2023-01-31T11:27:51;12.20;;;4.97;;
12896;SDS011;6516;35.028;32.372;2023-01-31T11:30:24;10.23;;;4.43;;
12896;SDS011;6516;35.028;32.372;2023-01-31T11:32:55;14.15;;;4.85;;
12896;SDS011;6516;35.028;32.372;2023-01-31T11:35:25;13.63;;;5.13;;
12896;SDS011;6516;35.028;32.372;2023-01-31T11:37:55;11.93;;;4.82;;
12896;SDS011;6516;35.028;32.372;2023-01-31T11:40:28;10.02;;;4.95;;
12896;SDS011;6516;35.028;32.372;2023-01-31T11:42:59;13.30;;;5.10;;
12896;SDS011;6516;35.028;32.372;2023-01-31T11:45:29;10.55;;;4.90;;
12896;SDS011;6516;35.028;32.372;2023-01-31T11:47:58;11.93;;;4.95;;
12896;SDS011;6516;35.028;32.372;2023-01-31T11:50:36;10.40;;;4.40;;
12896;SDS011;6516;35.028;32.372;2023-01-31T11:53:13;13.20;;;4.80;;
12896;SDS011;6516;35.028;32.372;2023-01-31T11:55:46;11.80;;;4.77;;
12896;SDS011;6516;35.028;32.372;2023-01-31T11:58:16;13.02;;;5.57;;
12896;SDS011;6516;35.028;32.372;2023-01-31T12:00:50;13.82;;;4.63;;
12896;SDS011;6516;35.028;32.372;2023-01-31T12:03:21;10.68;;;4.60;;
12896;SDS011;6516;35.028;32.372;2023-01-31T12:05:50;12.88;;;4.65;;
12896;SDS011;6516;35.028;32.372;2023-01-31T12:08:29;10.27;;;4.27;;
12896;SDS011;6516;35.028;32.372;2023-01-31T12:11:04;9.60;;;3.85;;
12896;SDS011;6516;35.028;32.372;2023-01-31T12:13:44;12.65;;;3.88;;
12896;SDS011;6516;35.028;32.372;2023-01-31T12:16:13;9.90;;;3.08;;
12896;SDS011;6516;35.028;32.372;2023-01-31T12:18:52;9.07;;;2.85;;
12896;SDS011;6516;35.028;32.372;2023-01-31T12:21:46;9.33;;;3.30;;
12896;SDS011;6516;35.028;32.372;2023-01-31T12:24:25;9.35;;;3.28;;
12896;SDS011;6516;35.028;32.372;2023-01-31T12:27:05;9.48;;;3.00;;
12896;SDS011;6516;35.028;32.372;2023-01-31T12:29:55;6.53;;;2.47;;
12896;SDS011;6516;35.028;32.372;2023-01-31T12:32:47;11.57;;;2.80;;
12896;SDS011;6516;35.028;32.372;2023-01-31T12:35:37;7.07;;;2.60;;
12896;SDS011;6516;35.028;32.372;2023-01-31T12:38:30;7.70;;;2.63;;
12896;SDS011;6516;35.028;32.372;2023-01-31T12:41:12;6.22;;;2.88;;
12896;SDS011;6516;35.028;32.372;2023-01-31T12:44:00;7.60;;;2.20;;
12896;SDS011;6516;35.028;32.372;2023-01-31T12:46:45;6.07;;;2.20;;
12896;SDS011;6516;35.028;32.372;2023-01-31T12:49:44;6.07;;;2.33;;
12896;SDS011;6516;35.028;32.372;2023-01-31T12:52:35;13.45;;;3.30;;
12896;SDS011;6516;35.028;32.372;2023-01-31T12:55:17;7.00;;;2.50;;
12896;SDS011;6516;35.028;32.372;2023-01-31T12:57:56;6.93;;;2.60;;
12896;SDS011;6516;35.028;32.372;2023-01-31T13:00:44;6.35;;;1.98;;
12896;SDS011;6516;35.028;32.372;2023-01-31T13:03:25;6.87;;;2.30;;
12896;SDS011;6516;35.028;32.372;2023-01-31T13:06:05;8.00;;;2.80;;
12896;SDS011;6516;35.028;32.372;2023-01-31T13:08:40;6.55;;;2.47;;
12896;SDS011;6516;35.028;32.372;2023-01-31T13:11:14;9.27;;;2.80;;
12896;SDS011;6516;35.028;32.372;2023-01-31T13:13:46;8.30;;;2.30;;
12896;SDS011;6516;35.028;32.372;2023-01-31T13:16:21;9.27;;;2.13;;
12896;SDS011;6516;35.028;32.372;2023-01-31T13:18:56;8.13;;;2.35;;
12896;SDS011;6516;35.028;32.372;2023-01-31T13:21:29;7.65;;;2.38;;
12896;SDS011;6516;35.028;32.372;2023-01-31T13:24:03;6.97;;;2.65;;
12896;SDS011;6516;35.028;32.372;2023-01-31T13:26:39;7.72;;;2.63;;
12896;SDS011;6516;35.028;32.372;2023-01-31T13:29:12;11.40;;;2.83;;
12896;SDS011;6516;35.028;32.372;2023-01-31T13:31:47;7.72;;;2.50;;
12896;SDS011;6516;35.028;32.372;2023-01-31T13:34:25;7.47;;;2.40;;
12896;SDS011;6516;35.028;32.372;2023-01-31T13:37:00;8.07;;;2.33;;
12896;SDS011;6516;35.028;32.372;2023-01-31T13:39:32;5.90;;;2.10;;
12896;SDS011;6516;35.028;32.372;2023-01-31T13:42:05;8.37;;;2.63;;
12896;SDS011;6516;35.028;32.372;2023-01-31T13:44:36;9.00;;;3.22;;
12896;SDS011;6516;35.028;32.372;2023-01-31T13:47:07;7.57;;;2.80;;
12896;SDS011;6516;35.028;32.372;2023-01-31T13:49:46;11.10;;;2.80;;
12896;SDS011;6516;35.028;32.372;2023-01-31T13:52:19;7.05;;;2.47;;
12896;SDS011;6516;35.028;32.372;2023-01-31T13:54:54;8.07;;;2.60;;
12896;SDS011;6516;35.028;32.372;2023-01-31T13:57:27;7.75;;;2.25;;
12896;SDS011;6516;35.028;32.372;2023-01-31T14:00:00;10.35;;;2.40;;
12896;SDS011;6516;35.028;32.372;2023-01-31T14:02:35;6.45;;;2.30;;
12896;SDS011;6516;35.028;32.372;2023-01-31T14:05:05;7.78;;;2.38;;
12896;SDS011;6516;35.028;32.372;2023-01-31T14:14:10;6.20;;;2.78;;
12896;SDS011;6516;35.028;32.372;2023-01-31T14:16:48;5.68;;;2.45;;
12896;SDS011;6516;35.028;32.372;2023-01-31T14:22:29;6.97;;;2.63;;
12896;SDS011;6516;35.028;32.372;2023-01-31T14:24:59;8.63;;;3.25;;
12896;SDS011;6516;35.028;32.372;2023-01-31T14:30:31;7.32;;;2.33;;
12896;SDS011;6516;35.028;32.372;2023-01-31T14:33:19;6.85;;;2.40;;
12896;SDS011;6516;35.028;32.372;2023-01-31T14:36:06;13.13;;;2.60;;
12896;SDS011;6516;35.028;32.372;2023-01-31T14:45:59;9.65;;;3.00;;
12896;SDS011;6516;35.028;32.372;2023-01-31T14:49:00;7.45;;;2.63;;
12896;SDS011;6516;35.028;32.372;2023-01-31T14:51:56;7.00;;;2.60;;
12896;SDS011;6516;35.028;32.372;2023-01-31T14:54:58;8.32;;;3.70;;
12896;SDS011;6516;35.028;32.372;2023-01-31T14:57:46;7.60;;;2.90;;
12896;SDS011;6516;35.028;32.372;2023-01-31T15:00:19;7.75;;;2.67;;
12896;SDS011;6516;35.028;32.372;2023-01-31T15:02:52;9.02;;;2.78;;
12896;SDS011;6516;35.028;32.372;2023-01-31T15:05:38;10.50;;;2.70;;
12896;SDS011;6516;35.028;32.372;2023-01-31T15:14:24;8.10;;;2.70;;
12896;SDS011;6516;35.028;32.372;2023-01-31T15:16:57;10.68;;;2.78;;
12896;SDS011;6516;35.028;32.372;2023-01-31T15:19:29;9.73;;;3.20;;
12896;SDS011;6516;35.028;32.372;2023-01-31T15:22:08;9.75;;;3.40;;
12896;SDS011;6516;35.028;32.372;2023-01-31T15:24:40;8.05;;;3.30;;
12896;SDS011;6516;35.028;32.372;2023-01-31T15:27:13;8.55;;;3.35;;
12896;SDS011;6516;35.028;32.372;2023-01-31T15:29:47;6.82;;;3.00;;
12896;SDS011;6516;35.028;32.372;2023-01-31T15:32:23;11.47;;;3.03;;
12896;SDS011;6516;35.028;32.372;2023-01-31T15:35:00;9.05;;;3.17;;
12896;SDS011;6516;35.028;32.372;2023-01-31T15:37:38;8.25;;;2.80;;
12896;SDS011;6516;35.028;32.372;2023-01-31T15:40:18;8.60;;;2.95;;
12896;SDS011;6516;35.028;32.372;2023-01-31T15:42:48;9.40;;;3.63;;
12896;SDS011;6516;35.028;32.372;2023-01-31T15:45:19;6.80;;;2.53;;
12896;SDS011;6516;35.028;32.372;2023-01-31T15:47:55;9.52;;;3.15;;
12896;SDS011;6516;35.028;32.372;2023-01-31T15:50:29;10.15;;;3.08;;